Time,TemperatureF,DewpointF,PressureIn,WindDirection,WindDirectionDegrees,WindSpeedMPH,WindSpeedGustMPH,Humidity,HourlyPrecipIn,Conditions,Clouds,dailyrainin,SolarRadiationWatts/m^2,SoftwareType,DateUTC
2013-03-22 00:12:00,56.9,52.0,29.94,East,101,0.0,0.0,82,0.00,,,0.00,0,weatherlink.com 1.10,2013-03-22 04:12:00,
2013-03-22 00:27:00,56.6,52.0,29.94,East,101,0.0,0.0,83,0.00,,,0.00,0,weatherlink.com 1.10,2013-03-22 04:27:00,
2013-03-22 00:42:00,56.4,51.0,29.93,East,101,0.0,0.0,83,0.00,,,0.00,0,weatherlink.com 1.10,2013-03-22 04:42:00,
2013-03-22 00:57:00,56.4,52.0,29.93,East,101,0.0,0.0,84,0.00,,,0.00,0,weatherlink.com 1.10,2013-03-22 04:57:00,
2013-03-22 01:12:00,56.0,51.0,29.93,East,101,0.0,0.0,84,0.00,,,0.00,0,weatherlink.com 1.10,2013-03-22 05:12:00,
2013-03-22 01:27:00,56.0,52.0,29.93,East,101,0.0,0.0,85,0.00,,,0.00,0,weatherlink.com 1.10,2013-03-22 05:27:00,
2013-03-22 01:42:00,55.8,52.0,29.93,East,101,0.0,0.0,86,0.00,,,0.00,0,weatherlink.com 1.10,2013-03-22 05:42:00,
2013-03-22 01:57:00,55.5,51.0,29.93,East,101,0.0,0.0,86,0.00,,,0.00,0,weatherlink.com 1.10,2013-03-22 05:57:00,
2013-03-22 02:12:00,55.1,51.0,29.93,East,101,0.0,0.0,86,0.00,,,0.00,0,weatherlink.com 1.10,2013-03-22 06:12:00,
2013-03-22 02:27:00,55.0,51.0,29.92,East,101,0.0,0.0,86,0.00,,,0.00,0,weatherlink.com 1.10,2013-03-22 06:27:00,
2013-03-22 02:42:00,55.1,51.0,29.92,East,101,0.0,0.0,87,0.00,,,0.00,0,weatherlink.com 1.10,2013-03-22 06:42:00,
2013-03-22 02:57:00,55.0,51.0,29.91,East,101,0.0,0.0,87,0.00,,,0.00,0,weatherlink.com 1.10,2013-03-22 06:57:00,
2013-03-22 03:12:00,54.5,51.0,29.91,East,101,0.0,0.0,87,0.00,,,0.00,0,weatherlink.com 1.10,2013-03-22 07:12:00,
2013-03-22 03:27:00,54.4,51.0,29.91,East,101,0.0,0.0,88,0.00,,,0.00,0,weatherlink.com 1.10,2013-03-22 07:27:00,
2013-03-22 03:42:00,54.4,51.0,29.91,East,101,0.0,0.0,88,0.00,,,0.00,0,weatherlink.com 1.10,2013-03-22 07:42:00,
2013-03-22 03:57:00,54.9,52.0,29.91,East,101,0.0,0.0,89,0.00,,,0.00,0,weatherlink.com 1.10,2013-03-22 07:57:00,
2013-03-22 04:12:00,54.8,52.0,29.91,East,101,0.0,0.0,89,0.00,,,0.00,0,weatherlink.com 1.10,2013-03-22 08:12:00,
2013-03-22 04:27:00,54.7,52.0,29.90,East,101,0.0,0.0,89,0.00,,,0.00,0,weatherlink.com 1.10,2013-03-22 08:27:00,
2013-03-22 04:42:00,55.2,52.0,29.90,East,101,0.0,0.0,89,0.00,,,0.00,0,weatherlink.com 1.10,2013-03-22 08:42:00,
2013-03-22 04:57:00,55.2,52.0,29.90,East,101,0.0,0.0,89,0.00,,,0.00,0,weatherlink.com 1.10,2013-03-22 08:57:00,
2013-03-22 05:12:00,54.9,52.0,29.90,East,101,0.0,0.0,90,0.00,,,0.00,0,weatherlink.com 1.10,2013-03-22 09:12:00,
2013-03-22 05:27:00,54.8,52.0,29.91,East,101,0.0,0.0,90,0.00,,,0.00,0,weatherlink.com 1.10,2013-03-22 09:27:00,
2013-03-22 05:42:00,54.9,52.0,29.91,East,101,0.0,0.0,90,0.00,,,0.00,0,weatherlink.com 1.10,2013-03-22 09:42:00,
2013-03-22 05:57:00,54.8,52.0,29.91,East,101,0.0,0.0,90,0.00,,,0.00,0,weatherlink.com 1.10,2013-03-22 09:57:00,
2013-03-22 06:12:00,54.6,52.0,29.92,East,101,0.0,0.0,90,0.00,,,0.00,0,weatherlink.com 1.10,2013-03-22 10:12:00,
2013-03-22 06:27:00,54.6,52.0,29.93,East,101,0.0,0.0,91,0.00,,,0.00,0,weatherlink.com 1.10,2013-03-22 10:27:00,
2013-03-22 06:42:00,54.6,52.0,29.93,East,101,0.0,0.0,91,0.00,,,0.00,0,weatherlink.com 1.10,2013-03-22 10:42:00,
2013-03-22 06:57:00,54.8,52.0,29.94,East,101,0.0,0.0,91,0.00,,,0.00,0,weatherlink.com 1.10,2013-03-22 10:57:00,
2013-03-22 07:15:00,55.1,53.0,29.95,East,101,0.0,0.0,91,0.00,,,0.00,0,weatherlink.com 1.10,2013-03-22 11:15:00,
2013-03-22 07:27:00,55.1,53.0,29.95,East,101,0.0,0.0,91,0.00,,,0.00,9,weatherlink.com 1.10,2013-03-22 11:27:00,
2013-03-22 07:42:00,55.5,53.0,29.95,East,101,0.0,0.0,91,0.00,,,0.00,33,weatherlink.com 1.10,2013-03-22 11:42:00,
2013-03-22 07:57:00,56.1,54.0,29.96,East,101,0.0,0.0,91,0.00,,,0.00,65,weatherlink.com 1.10,2013-03-22 11:57:00,
2013-03-22 08:13:00,58.5,56.0,29.96,East,101,0.0,0.0,92,0.00,,,0.00,42,weatherlink.com 1.10,2013-03-22 12:13:00,
2013-03-22 08:28:00,59.5,57.0,29.96,East,101,0.0,0.0,90,0.00,,,0.00,185,weatherlink.com 1.10,2013-03-22 12:28:00,
2013-03-22 08:43:00,64.1,59.0,29.97,East,101,0.0,1.0,84,0.00,,,0.00,148,weatherlink.com 1.10,2013-03-22 12:43:00,
2013-03-22 08:58:00,67.0,59.0,29.98,East,101,0.0,1.0,75,0.00,,,0.00,156,weatherlink.com 1.10,2013-03-22 12:58:00,
2013-03-22 09:13:00,68.8,60.0,29.98,East,101,1.0,1.0,73,0.00,,,0.00,329,weatherlink.com 1.10,2013-03-22 13:13:00,
2013-03-22 09:43:00,71.9,59.0,29.99,SE,134,4.0,10.0,63,0.00,,,0.00,176,weatherlink.com 1.10,2013-03-22 13:43:00,
2013-03-22 09:58:00,72.6,59.0,29.99,South,171,3.0,8.0,63,0.00,,,0.00,519,weatherlink.com 1.10,2013-03-22 13:58:00,
2013-03-22 10:13:00,73.1,59.0,30.00,ESE,105,9.0,11.0,61,0.00,,,0.00,207,weatherlink.com 1.10,2013-03-22 14:13:00,
2013-03-22 10:28:00,72.8,58.0,30.00,ESE,119,9.0,10.0,61,0.00,,,0.00,598,weatherlink.com 1.10,2013-03-22 14:28:00,
2013-03-22 10:43:00,73.6,60.0,30.00,ESE,113,9.0,10.0,62,0.00,,,0.00,696,weatherlink.com 1.10,2013-03-22 14:43:00,
2013-03-22 10:58:00,73.9,60.0,30.00,SE,134,5.0,8.0,63,0.00,,,0.00,374,weatherlink.com 1.10,2013-03-22 14:58:00,
2013-03-22 11:13:00,74.3,61.0,30.01,SSE,166,3.0,10.0,63,0.00,,,0.00,487,weatherlink.com 1.10,2013-03-22 15:13:00,
2013-03-22 11:28:00,73.1,60.0,30.01,East,90,8.0,14.0,63,0.00,,,0.00,390,weatherlink.com 1.10,2013-03-22 15:28:00,
2013-03-22 11:43:00,73.9,60.0,30.01,SE,131,4.0,10.0,63,0.00,,,0.00,450,weatherlink.com 1.10,2013-03-22 15:43:00,
2013-03-22 11:58:00,74.0,60.0,30.00,SE,136,6.0,12.0,62,0.00,,,0.00,954,weatherlink.com 1.10,2013-03-22 15:58:00,
2013-03-22 12:13:00,74.5,61.0,30.01,East,88,6.0,13.0,62,0.00,,,0.00,364,weatherlink.com 1.10,2013-03-22 16:13:00,
2013-03-22 12:28:00,73.1,60.0,30.01,East,92,7.0,16.0,63,0.00,,,0.00,272,weatherlink.com 1.10,2013-03-22 16:28:00,
2013-03-22 12:43:00,72.8,60.0,30.00,SE,138,1.0,11.0,64,0.00,,,0.00,424,weatherlink.com 1.10,2013-03-22 16:43:00,
2013-03-22 12:58:00,73.3,59.0,30.00,ESE,122,8.0,12.0,62,0.00,,,0.00,464,weatherlink.com 1.10,2013-03-22 16:58:00,
2013-03-22 13:13:00,73.4,60.0,30.00,SE,126,6.0,13.0,63,0.00,,,0.00,519,weatherlink.com 1.10,2013-03-22 17:13:00,
2013-03-22 13:28:00,74.2,60.0,29.99,SE,132,5.0,12.0,62,0.00,,,0.00,269,weatherlink.com 1.10,2013-03-22 17:28:00,
2013-03-22 13:43:00,72.8,59.0,29.99,ESE,123,7.0,13.0,62,0.00,,,0.00,178,weatherlink.com 1.10,2013-03-22 17:43:00,
2013-03-22 13:58:00,72.5,60.0,29.97,East,85,7.0,12.0,64,0.00,,,0.00,207,weatherlink.com 1.10,2013-03-22 17:58:00,
2013-03-22 14:13:00,72.7,60.0,29.96,ESE,109,7.0,13.0,64,0.00,,,0.00,316,weatherlink.com 1.10,2013-03-22 18:13:00,
2013-03-22 14:28:00,73.0,60.0,29.96,SE,145,6.0,13.0,63,0.00,,,0.00,202,weatherlink.com 1.10,2013-03-22 18:28:00,
2013-03-22 14:43:00,73.9,60.0,29.95,ESE,112,8.0,13.0,62,0.00,,,0.00,422,weatherlink.com 1.10,2013-03-22 18:43:00,
2013-03-22 14:58:00,75.3,60.0,29.94,SE,136,4.0,12.0,60,0.00,,,0.00,1085,weatherlink.com 1.10,2013-03-22 18:58:00,
2013-03-22 15:13:00,74.6,61.0,29.94,ESE,123,8.0,10.0,62,0.00,,,0.00,230,weatherlink.com 1.10,2013-03-22 19:13:00,
2013-03-22 15:28:00,74.0,60.0,29.93,SSE,148,5.0,11.0,61,0.00,,,0.00,392,weatherlink.com 1.10,2013-03-22 19:28:00,
2013-03-22 15:43:00,74.1,60.0,29.93,East,94,2.0,10.0,62,0.00,,,0.00,304,weatherlink.com 1.10,2013-03-22 19:43:00,
2013-03-22 15:59:00,74.0,60.0,29.93,East,96,9.0,12.0,62,0.00,,,0.00,274,weatherlink.com 1.10,2013-03-22 19:59:00,
2013-03-22 16:13:00,73.6,60.0,29.93,SE,145,4.0,13.0,63,0.00,,,0.00,195,weatherlink.com 1.10,2013-03-22 20:13:00,
2013-03-22 16:29:00,72.7,62.0,29.93,SSE,149,2.0,9.0,69,0.00,,,0.00,137,weatherlink.com 1.10,2013-03-22 20:29:00,
2013-03-22 16:44:00,72.5,61.0,29.93,SE,127,2.0,11.0,67,0.00,,,0.00,160,weatherlink.com 1.10,2013-03-22 20:44:00,
2013-03-22 16:59:00,73.2,62.0,29.92,ESE,108,0.0,8.0,67,0.00,,,0.00,192,weatherlink.com 1.10,2013-03-22 20:59:00,
2013-03-22 17:14:00,73.2,62.0,29.92,ESE,113,7.0,7.0,67,0.00,,,0.00,134,weatherlink.com 1.10,2013-03-22 21:14:00,
2013-03-22 17:29:00,73.7,62.0,29.92,SE,144,4.0,14.0,68,0.00,,,0.00,139,weatherlink.com 1.10,2013-03-22 21:29:00,
2013-03-22 17:44:00,73.4,63.0,29.93,SW,217,2.0,12.0,70,0.00,,,0.00,190,weatherlink.com 1.10,2013-03-22 21:44:00,
2013-03-22 17:59:00,73.8,63.0,29.93,SSE,168,4.0,10.0,70,0.00,,,0.00,141,weatherlink.com 1.10,2013-03-22 21:59:00,
2013-03-22 18:14:00,73.6,64.0,29.92,SE,128,2.0,12.0,72,0.00,,,0.00,130,weatherlink.com 1.10,2013-03-22 22:14:00,
2013-03-22 18:29:00,73.9,65.0,29.92,SE,130,9.0,11.0,73,0.00,,,0.00,70,weatherlink.com 1.10,2013-03-22 22:29:00,
2013-03-22 18:45:00,73.7,65.0,29.92,ESE,119,5.0,10.0,75,0.00,,,0.00,74,weatherlink.com 1.10,2013-03-22 22:45:00,
2013-03-22 19:14:00,73.5,66.0,29.93,SE,128,4.0,10.0,77,0.00,,,0.00,7,weatherlink.com 1.10,2013-03-22 23:14:00,
2013-03-22 19:29:00,73.4,66.0,29.94,SSW,192,2.0,8.0,77,0.00,,,0.00,0,weatherlink.com 1.10,2013-03-22 23:29:00,
2013-03-22 19:44:00,73.3,66.0,29.94,SE,131,1.0,8.0,79,0.00,,,0.00,0,weatherlink.com 1.10,2013-03-22 23:44:00,
2013-03-22 19:59:00,73.3,67.0,29.93,SE,146,2.0,6.0,80,0.00,,,0.00,0,weatherlink.com 1.10,2013-03-22 23:59:00,
2013-03-22 20:14:00,73.3,67.0,29.94,SE,125,1.0,8.0,80,0.00,,,0.00,0,weatherlink.com 1.10,2013-03-23 00:14:00,
2013-03-22 20:29:00,73.4,67.0,29.94,SE,130,5.0,8.0,81,0.00,,,0.00,0,weatherlink.com 1.10,2013-03-23 00:29:00,
2013-03-22 20:44:00,73.5,67.0,29.95,South,185,3.0,6.0,81,0.00,,,0.00,0,weatherlink.com 1.10,2013-03-23 00:44:00,
2013-03-22 20:59:00,73.6,67.0,29.95,SSE,158,2.0,6.0,81,0.00,,,0.00,0,weatherlink.com 1.10,2013-03-23 00:59:00,
2013-03-22 21:14:00,73.6,68.0,29.95,SE,142,2.0,8.0,82,0.00,,,0.00,0,weatherlink.com 1.10,2013-03-23 01:14:00,
2013-03-22 21:29:00,73.6,68.0,29.96,East,99,2.0,7.0,82,0.00,,,0.00,0,weatherlink.com 1.10,2013-03-23 01:29:00,
2013-03-22 21:44:00,73.7,68.0,29.97,SE,132,1.0,7.0,83,0.00,,,0.00,0,weatherlink.com 1.10,2013-03-23 01:44:00,
2013-03-22 21:59:00,73.7,68.0,29.97,SE,127,3.0,8.0,83,0.00,,,0.00,0,weatherlink.com 1.10,2013-03-23 01:59:00,
2013-03-22 22:14:00,73.3,69.0,29.97,ESE,109,2.0,4.0,85,0.01,,,0.01,0,weatherlink.com 1.10,2013-03-23 02:14:00,
2013-03-22 22:30:00,72.9,69.0,29.98,SSE,155,1.0,3.0,86,0.01,,,0.01,0,weatherlink.com 1.10,2013-03-23 02:30:00,
2013-03-22 22:44:00,72.6,69.0,29.97,SE,132,1.0,4.0,87,0.01,,,0.01,0,weatherlink.com 1.10,2013-03-23 02:44:00,
2013-03-22 22:59:00,72.6,69.0,29.97,SSW,194,2.0,5.0,87,0.01,,,0.01,0,weatherlink.com 1.10,2013-03-23 02:59:00,
2013-03-22 23:14:00,72.7,69.0,29.98,SSE,166,1.0,7.0,87,0.00,,,0.01,0,weatherlink.com 1.10,2013-03-23 03:14:00,
2013-03-22 23:29:00,72.7,69.0,29.99,SSE,154,1.0,4.0,87,0.00,,,0.01,0,weatherlink.com 1.10,2013-03-23 03:29:00,
2013-03-22 23:44:00,72.6,69.0,29.98,South,186,0.0,3.0,88,0.00,,,0.01,0,weatherlink.com 1.10,2013-03-23 03:44:00,
2013-03-22 23:59:00,72.5,69.0,29.99,South,187,0.0,1.0,88,0.00,,,0.01,0,weatherlink.com 1.10,2013-03-23 03:59:00,